Time;durP1;ratioP1;P1;durP2;ratioP2;P2;SDS_P1;SDS_P2;PMS_P1;PMS_P2;Temp;Humidity;BMP_temperature;BMP_pressure;BME280_temperature;BME280_humidity;BME280_pressure;Samples;Min_cycle;Max_cycle;Signal;HPM_P1;HPM_P2
2020/12/28 00:01:27;;;;;;;1.40;1.30;;;;;;;;;;5022454;28;20549;-93
2020/12/28 00:03:53;;;;;;;1.70;1.30;;;;;;;;;;5019682;28;23199;-93
2020/12/28 00:06:19;;;;;;;1.73;1.37;;;;;;;;;;5021909;28;20453;-94
2020/12/28 00:08:45;;;;;;;1.30;1.20;;;;;;;;;;5024838;28;20459;-95
2020/12/28 00:11:11;;;;;;;1.77;1.40;;;;;;;;;;5023559;28;20455;-94
2020/12/28 00:13:38;;;;;;;2.07;1.47;;;;;;;;;;5026184;28;20465;-94
2020/12/28 00:16:04;;;;;;;2.00;1.03;;;;;;;;;;5023899;28;20466;-93
2020/12/28 00:18:30;;;;;;;2.50;1.17;;;;;;;;;;5025740;28;20492;-95
2020/12/28 00:20:56;;;;;;;1.33;1.23;;;;;;;;;;5022083;28;20468;-95
2020/12/28 00:23:22;;;;;;;2.70;1.50;;;;;;;;;;5024625;28;20459;-94
2020/12/28 00:25:48;;;;;;;2.60;1.70;;;;;;;;;;5020864;28;20486;-94
2020/12/28 00:28:14;;;;;;;2.70;2.50;;;;;;;;;;5024469;28;20473;-95
2020/12/28 00:30:41;;;;;;;2.70;2.50;;;;;;;;;;5025119;28;20460;-94
2020/12/28 00:33:07;;;;;;;3.53;2.20;;;;;;;;;;5021276;28;20482;-94
2020/12/28 00:35:32;;;;;;;2.03;1.83;;;;;;;;;;5023418;28;20460;-95
2020/12/28 00:37:58;;;;;;;4.00;1.97;;;;;;;;;;5022002;28;20470;-94
2020/12/28 00:40:24;;;;;;;1.90;1.70;;;;;;;;;;5023923;28;20468;-96
2020/12/28 00:42:50;;;;;;;1.90;1.73;;;;;;;;;;5021786;28;20886;-94
2020/12/28 00:45:16;;;;;;;2.20;1.60;;;;;;;;;;5025516;28;20458;-94
2020/12/28 00:47:43;;;;;;;1.90;1.80;;;;;;;;;;5022749;28;20466;-95
2020/12/28 00:50:09;;;;;;;4.53;1.80;;;;;;;;;;5026308;28;20454;-94
2020/12/28 00:52:35;;;;;;;2.00;1.90;;;;;;;;;;5024900;28;20464;-94
2020/12/28 00:55:01;;;;;;;1.80;1.63;;;;;;;;;;5021492;28;20835;-94
2020/12/28 00:57:27;;;;;;;3.50;2.37;;;;;;;;;;5023937;28;20452;-95
2020/12/28 00:59:53;;;;;;;2.43;2.17;;;;;;;;;;5020547;28;21022;-94
2020/12/28 01:02:19;;;;;;;4.40;2.13;;;;;;;;;;5023254;28;20491;-94
2020/12/28 01:04:46;;;;;;;1.83;1.73;;;;;;;;;;5019689;28;20459;-94
2020/12/28 01:07:14;;;;;;;1.90;1.80;;;;;;;;;;5004510;28;20464;-95
2020/12/28 01:09:40;;;;;;;4.40;2.00;;;;;;;;;;5006181;28;20554;-94
2020/12/28 01:12:06;;;;;;;2.97;1.90;;;;;;;;;;5023594;28;21149;-94
2020/12/28 01:14:32;;;;;;;3.93;2.17;;;;;;;;;;5024865;28;20443;-95
2020/12/28 01:16:58;;;;;;;2.30;2.00;;;;;;;;;;5021377;28;20474;-95
2020/12/28 01:19:24;;;;;;;1.80;1.70;;;;;;;;;;5036335;28;20479;-96
2020/12/28 01:21:50;;;;;;;3.17;1.97;;;;;;;;;;5017490;28;20502;-95
2020/12/28 01:24:17;;;;;;;4.03;2.20;;;;;;;;;;5023555;28;20452;-94
2020/12/28 01:26:43;;;;;;;3.77;2.40;;;;;;;;;;5027507;28;21163;-95
2020/12/28 01:29:09;;;;;;;8.93;7.47;;;;;;;;;;5044577;28;20545;-95
2020/12/28 01:31:35;;;;;;;8.80;7.13;;;;;;;;;;5031079;28;20459;-95
2020/12/28 01:34:01;;;;;;;8.47;6.30;;;;;;;;;;5024020;28;20486;-95
2020/12/28 01:36:28;;;;;;;7.53;6.53;;;;;;;;;;5023753;28;20456;-95
2020/12/28 01:38:55;;;;;;;5.17;4.67;;;;;;;;;;5040636;28;20509;-94
2020/12/28 01:41:21;;;;;;;7.80;4.70;;;;;;;;;;5028729;28;20514;-95
2020/12/28 01:43:47;;;;;;;5.13;3.47;;;;;;;;;;5014833;28;20460;-94
2020/12/28 01:46:13;;;;;;;4.80;3.80;;;;;;;;;;5022815;28;20478;-95
2020/12/28 01:48:39;;;;;;;5.47;4.10;;;;;;;;;;5022677;28;20486;-95
2020/12/28 01:51:05;;;;;;;6.43;3.70;;;;;;;;;;5023562;28;20468;-94
2020/12/28 01:53:31;;;;;;;4.73;3.50;;;;;;;;;;5025032;28;20471;-94
2020/12/28 01:56:01;;;;;;;5.03;3.10;;;;;;;;;;5044520;28;20462;-94
2020/12/28 01:58:28;;;;;;;9.00;3.00;;;;;;;;;;5040115;28;20489;-94
2020/12/28 02:00:54;;;;;;;4.83;3.07;;;;;;;;;;5027471;28;20551;-94
2020/12/28 02:03:20;;;;;;;4.03;2.83;;;;;;;;;;5019882;28;20460;-94
2020/12/28 02:05:46;;;;;;;5.07;2.43;;;;;;;;;;5017141;28;20460;-95
2020/12/28 02:08:12;;;;;;;5.93;3.20;;;;;;;;;;5018740;28;20459;-94
2020/12/28 02:10:38;;;;;;;3.57;2.13;;;;;;;;;;5016448;28;20499;-93
2020/12/28 02:13:05;;;;;;;4.17;2.63;;;;;;;;;;5018969;28;20803;-94
2020/12/28 02:15:31;;;;;;;2.27;2.07;;;;;;;;;;5018963;28;20452;-94
2020/12/28 02:17:57;;;;;;;2.33;2.03;;;;;;;;;;5022560;28;20513;-94
2020/12/28 02:20:24;;;;;;;2.00;1.90;;;;;;;;;;5022729;28;20639;-94
2020/12/28 02:22:50;;;;;;;2.90;2.40;;;;;;;;;;5020938;28;20492;-94
2020/12/28 02:25:16;;;;;;;6.00;2.50;;;;;;;;;;5024148;28;20440;-94
2020/12/28 02:27:42;;;;;;;4.30;2.40;;;;;;;;;;5021362;28;20459;-95
2020/12/28 02:30:08;;;;;;;5.23;2.60;;;;;;;;;;5021077;28;20475;-95
2020/12/28 02:32:34;;;;;;;4.50;2.70;;;;;;;;;;5019680;28;20459;-94
2020/12/28 02:35:00;;;;;;;2.80;2.53;;;;;;;;;;5019877;28;20452;-94
2020/12/28 02:37:26;;;;;;;3.40;3.07;;;;;;;;;;5005854;28;20450;-94
2020/12/28 02:39:53;;;;;;;2.90;2.23;;;;;;;;;;5023848;28;20466;-95
2020/12/28 02:42:19;;;;;;;3.50;2.80;;;;;;;;;;5023391;28;20495;-94
2020/12/28 02:44:45;;;;;;;7.70;2.60;;;;;;;;;;5020130;28;20558;-94
2020/12/28 02:47:11;;;;;;;3.67;2.67;;;;;;;;;;5023239;28;20855;-94
2020/12/28 02:49:37;;;;;;;6.70;3.37;;;;;;;;;;5018493;28;20499;-96
2020/12/28 02:52:03;;;;;;;3.97;2.23;;;;;;;;;;5001918;28;20496;-94
2020/12/28 02:54:29;;;;;;;3.43;2.80;;;;;;;;;;5009658;28;20451;-94
2020/12/28 02:56:56;;;;;;;3.80;3.13;;;;;;;;;;5022653;28;20460;-96
2020/12/28 02:59:22;;;;;;;7.40;3.23;;;;;;;;;;5020341;28;20471;-95
2020/12/28 03:01:48;;;;;;;4.00;3.37;;;;;;;;;;5023760;28;20500;-95
2020/12/28 03:04:14;;;;;;;3.80;3.40;;;;;;;;;;5020043;28;20498;-94
2020/12/28 03:06:40;;;;;;;4.60;3.47;;;;;;;;;;5018984;28;20460;-95
2020/12/28 03:09:06;;;;;;;8.27;3.83;;;;;;;;;;5022298;28;20471;-94
2020/12/28 03:11:32;;;;;;;4.70;4.20;;;;;;;;;;5019498;28;20463;-95
2020/12/28 03:13:59;;;;;;;5.90;4.27;;;;;;;;;;5023676;28;20503;-95
2020/12/28 03:16:25;;;;;;;7.67;4.63;;;;;;;;;;5020233;28;20452;-95
2020/12/28 03:18:51;;;;;;;6.93;4.10;;;;;;;;;;5021153;28;20491;-94
2020/12/28 03:21:17;;;;;;;6.07;4.40;;;;;;;;;;5018571;28;20456;-95
2020/12/28 03:23:43;;;;;;;5.20;3.97;;;;;;;;;;5021615;28;20474;-95
2020/12/28 03:26:09;;;;;;;7.67;3.93;;;;;;;;;;5023133;28;20448;-94
2020/12/28 03:28:35;;;;;;;4.20;3.80;;;;;;;;;;5018935;28;20509;-95
2020/12/28 03:31:02;;;;;;;5.60;4.77;;;;;;;;;;5021783;28;20452;-96
2020/12/28 03:33:28;;;;;;;7.17;4.27;;;;;;;;;;5018848;28;20467;-94
2020/12/28 03:35:54;;;;;;;5.00;4.50;;;;;;;;;;5011544;28;20456;-94
2020/12/28 03:38:20;;;;;;;5.20;4.70;;;;;;;;;;5014897;28;20467;-95
2020/12/28 03:40:46;;;;;;;7.33;5.03;;;;;;;;;;5022367;28;20455;-95
2020/12/28 03:43:12;;;;;;;10.77;5.63;;;;;;;;;;5020133;28;20488;-96
2020/12/28 03:45:38;;;;;;;7.33;5.10;;;;;;;;;;5002379;28;20504;-96
2020/12/28 03:48:05;;;;;;;8.37;4.77;;;;;;;;;;5017785;28;20537;-95
2020/12/28 03:50:31;;;;;;;11.83;6.97;;;;;;;;;;5020649;28;20459;-96
2020/12/28 03:52:57;;;;;;;8.80;5.33;;;;;;;;;;5022737;28;20856;-95
2020/12/28 03:55:23;;;;;;;8.70;5.50;;;;;;;;;;5020780;28;20455;-94
2020/12/28 03:57:49;;;;;;;8.70;5.00;;;;;;;;;;5022068;28;20470;-95
2020/12/28 04:00:15;;;;;;;8.43;4.40;;;;;;;;;;5019566;28;20487;-94
2020/12/28 04:02:41;;;;;;;9.60;4.30;;;;;;;;;;5022742;28;20491;-94
2020/12/28 04:05:08;;;;;;;4.63;4.10;;;;;;;;;;5018540;28;20467;-94
2020/12/28 04:07:34;;;;;;;6.13;4.67;;;;;;;;;;5020953;28;20464;-94
2020/12/28 04:10:00;;;;;;;4.83;4.27;;;;;;;;;;5021651;28;20452;-94
2020/12/28 04:12:26;;;;;;;7.37;4.70;;;;;;;;;;5018399;28;20518;-94
2020/12/28 04:14:52;;;;;;;10.67;5.50;;;;;;;;;;5021878;28;20448;-94
2020/12/28 04:17:18;;;;;;;5.83;4.30;;;;;;;;;;5017667;28;20838;-94
2020/12/28 04:19:44;;;;;;;5.90;4.17;;;;;;;;;;5021125;28;20490;-94
2020/12/28 04:22:11;;;;;;;8.50;5.70;;;;;;;;;;5019285;28;20495;-96
2020/12/28 04:24:37;;;;;;;13.00;7.40;;;;;;;;;;5020832;28;20450;-94
2020/12/28 04:27:03;;;;;;;13.60;9.00;;;;;;;;;;5018133;28;20476;-96
2020/12/28 04:29:29;;;;;;;17.00;9.40;;;;;;;;;;5021054;28;20447;-96
2020/12/28 04:31:55;;;;;;;18.90;11.40;;;;;;;;;;5019853;28;20448;-95
2020/12/28 04:34:22;;;;;;;19.57;11.37;;;;;;;;;;5018804;28;21333;-95
2020/12/28 04:36:47;;;;;;;16.70;10.90;;;;;;;;;;5019075;28;20467;-96
2020/12/28 04:39:14;;;;;;;17.50;11.40;;;;;;;;;;5019656;28;20979;-95
2020/12/28 04:41:40;;;;;;;14.40;9.00;;;;;;;;;;5021528;28;20484;-94
2020/12/28 04:44:06;;;;;;;11.30;9.10;;;;;;;;;;5019633;28;20452;-95
2020/12/28 04:46:36;;;;;;;14.53;9.57;;;;;;;;;;5021505;28;20471;-95
2020/12/28 04:49:02;;;;;;;13.67;9.20;;;;;;;;;;5019353;28;20452;-94
2020/12/28 04:51:28;;;;;;;13.50;6.70;;;;;;;;;;5005410;28;21031;-95
2020/12/28 04:53:54;;;;;;;10.03;5.20;;;;;;;;;;5004421;28;20452;-95
2020/12/28 04:56:21;;;;;;;9.83;6.57;;;;;;;;;;5019413;28;20471;-96
2020/12/28 04:58:47;;;;;;;11.03;7.33;;;;;;;;;;5026143;28;20452;-94
2020/12/28 05:01:13;;;;;;;9.20;5.47;;;;;;;;;;5022801;28;20447;-94
2020/12/28 05:03:39;;;;;;;4.67;4.00;;;;;;;;;;5026363;28;20458;-95
2020/12/28 05:06:05;;;;;;;14.33;5.80;;;;;;;;;;5022023;28;20482;-94
2020/12/28 05:08:31;;;;;;;10.17;6.00;;;;;;;;;;5024742;28;20448;-93
2020/12/28 05:11:06;;;;;;;5.47;4.50;;;;;;;;;;5021783;28;20468;-95
2020/12/28 05:13:33;;;;;;;6.37;3.70;;;;;;;;;;5024801;28;20474;-95
2020/12/28 05:15:59;;;;;;;6.80;3.50;;;;;;;;;;5024162;28;20451;-92
2020/12/28 05:18:25;;;;;;;5.90;3.17;;;;;;;;;;5025498;28;20864;-96
2020/12/28 05:20:51;;;;;;;3.10;2.73;;;;;;;;;;5024669;28;20477;-93
2020/12/28 05:23:18;;;;;;;2.90;2.10;;;;;;;;;;5017799;28;20491;-92
2020/12/28 05:25:45;;;;;;;4.80;2.90;;;;;;;;;;5023561;28;20452;-95
2020/12/28 05:28:14;;;;;;;4.93;2.87;;;;;;;;;;5023879;28;20448;-94
2020/12/28 05:30:45;;;;;;;3.67;2.37;;;;;;;;;;5025115;28;20483;-92
2020/12/28 05:33:11;;;;;;;3.23;2.60;;;;;;;;;;5024216;28;20489;-93
2020/12/28 05:35:38;;;;;;;4.77;2.73;;;;;;;;;;5024533;28;20451;-94
2020/12/28 05:38:05;;;;;;;4.57;2.70;;;;;;;;;;5025079;28;20486;-94
2020/12/28 05:40:32;;;;;;;3.17;2.87;;;;;;;;;;5039350;28;20463;-94
2020/12/28 05:42:58;;;;;;;3.23;2.50;;;;;;;;;;5042464;28;20552;-94
2020/12/28 05:45:27;;;;;;;5.23;2.50;;;;;;;;;;5022338;28;20456;-96
2020/12/28 05:47:55;;;;;;;2.67;2.13;;;;;;;;;;5023867;28;20456;-93
2020/12/28 05:50:22;;;;;;;2.77;2.40;;;;;;;;;;5020851;28;20460;-94
2020/12/28 05:52:55;;;;;;;4.50;2.03;;;;;;;;;;5022353;28;20468;-95
2020/12/28 05:55:22;;;;;;;2.43;2.23;;;;;;;;;;5018938;28;20456;-94
2020/12/28 05:57:48;;;;;;;2.50;2.07;;;;;;;;;;5022666;28;20495;-93
2020/12/28 06:00:14;;;;;;;4.30;2.90;;;;;;;;;;5022466;28;20455;-94
2020/12/28 06:02:40;;;;;;;6.37;2.07;;;;;;;;;;5021446;28;20494;-93
2020/12/28 06:05:09;;;;;;;2.97;2.47;;;;;;;;;;5020730;28;20475;-94
2020/12/28 06:07:35;;;;;;;4.40;2.77;;;;;;;;;;5035620;28;20459;-95
2020/12/28 06:10:01;;;;;;;6.47;2.73;;;;;;;;;;5044250;28;20447;-95
2020/12/28 06:12:27;;;;;;;7.83;5.40;;;;;;;;;;5030647;28;20471;-94
2020/12/28 06:14:53;;;;;;;8.30;6.00;;;;;;;;;;5023367;28;20451;-94
2020/12/28 06:17:19;;;;;;;7.60;4.97;;;;;;;;;;5022201;28;20514;-94
2020/12/28 06:19:45;;;;;;;7.77;4.70;;;;;;;;;;5022405;28;20483;-95
2020/12/28 06:22:19;;;;;;;12.00;7.87;;;;;;;;;;5020618;28;20510;-94
2020/12/28 06:24:55;;;;;;;8.07;5.70;;;;;;;;;;5008607;28;20480;-96
2020/12/28 06:27:27;;;;;;;7.83;5.70;;;;;;;;;;5018895;28;20453;-96
2020/12/28 06:29:53;;;;;;;10.73;7.40;;;;;;;;;;5016123;28;20441;-94
2020/12/28 06:32:19;;;;;;;13.13;6.90;;;;;;;;;;5018113;28;20459;-95
2020/12/28 06:34:46;;;;;;;8.40;5.90;;;;;;;;;;5020093;28;20472;-94
2020/12/28 06:37:13;;;;;;;10.10;6.50;;;;;;;;;;5024412;28;20447;-94
2020/12/28 06:39:40;;;;;;;5.60;4.97;;;;;;;;;;5020761;28;20498;-93
2020/12/28 06:42:10;;;;;;;5.37;3.60;;;;;;;;;;5023489;28;20922;-94
2020/12/28 06:44:36;;;;;;;7.20;3.77;;;;;;;;;;5012565;28;20474;-95
2020/12/28 06:47:02;;;;;;;3.80;3.50;;;;;;;;;;5022537;28;20581;-96
2020/12/28 06:49:39;;;;;;;6.60;5.00;;;;;;;;;;5022303;28;20482;-95
2020/12/28 06:52:05;;;;;;;8.07;5.83;;;;;;;;;;5022390;28;20471;-96
2020/12/28 06:54:31;;;;;;;8.00;5.00;;;;;;;;;;5009795;28;20452;-96
2020/12/28 06:57:01;;;;;;;4.23;3.70;;;;;;;;;;5018706;28;20462;-96
2020/12/28 06:59:27;;;;;;;4.20;3.80;;;;;;;;;;5016966;28;20522;-96
2020/12/28 07:01:53;;;;;;;6.20;4.10;;;;;;;;;;5015320;28;20511;-95
2020/12/28 07:04:20;;;;;;;8.13;4.10;;;;;;;;;;5019025;28;20456;-94
2020/12/28 07:06:46;;;;;;;6.07;4.63;;;;;;;;;;5015960;28;20451;-94
2020/12/28 07:09:12;;;;;;;17.67;13.53;;;;;;;;;;5019925;28;20471;-95
2020/12/28 07:11:38;;;;;;;23.47;16.10;;;;;;;;;;5018308;28;20463;-95
2020/12/28 07:14:05;;;;;;;36.00;18.40;;;;;;;;;;5019992;28;20448;-94
2020/12/28 07:16:31;;;;;;;31.33;17.50;;;;;;;;;;5015745;28;20460;-95
2020/12/28 07:19:03;;;;;;;38.53;18.20;;;;;;;;;;5025979;28;20518;-94
2020/12/28 07:21:29;;;;;;;28.77;17.00;;;;;;;;;;5024479;28;20467;-95
2020/12/28 07:23:55;;;;;;;48.77;21.80;;;;;;;;;;5021748;28;20456;-94
2020/12/28 07:26:22;;;;;;;42.53;18.40;;;;;;;;;;5022713;28;20455;-94
2020/12/28 07:28:47;;;;;;;30.90;18.20;;;;;;;;;;5020831;28;20448;-94
2020/12/28 07:31:14;;;;;;;24.47;16.37;;;;;;;;;;5020919;28;20474;-94
2020/12/28 07:33:44;;;;;;;25.37;16.13;;;;;;;;;;5021615;28;20539;-95
2020/12/28 07:36:12;;;;;;;21.93;15.30;;;;;;;;;;5015173;28;20495;-95
2020/12/28 07:38:38;;;;;;;22.23;14.67;;;;;;;;;;5004762;28;20449;-95
2020/12/28 07:41:04;;;;;;;23.47;13.80;;;;;;;;;;5013006;28;20473;-94
2020/12/28 07:43:30;;;;;;;19.83;13.30;;;;;;;;;;5019950;28;20522;-94
2020/12/28 07:46:03;;;;;;;22.17;13.33;;;;;;;;;;5017140;28;20459;-94
2020/12/28 07:48:31;;;;;;;16.53;11.93;;;;;;;;;;5009834;28;20499;-94
2020/12/28 07:50:59;;;;;;;16.63;10.43;;;;;;;;;;5010372;28;20503;-94
2020/12/28 07:53:26;;;;;;;11.90;8.53;;;;;;;;;;5021861;28;20460;-94
2020/12/28 07:55:57;;;;;;;8.40;5.23;;;;;;;;;;5022916;28;20510;-94
2020/12/28 07:58:28;;;;;;;10.80;7.50;;;;;;;;;;5042943;28;20444;-95
2020/12/28 08:00:54;;;;;;;12.33;8.80;;;;;;;;;;5019994;28;20471;-95
2020/12/28 08:03:22;;;;;;;12.13;8.27;;;;;;;;;;5020764;28;20526;-94
2020/12/28 08:05:50;;;;;;;6.20;5.60;;;;;;;;;;5020314;28;20460;-95
2020/12/28 08:08:23;;;;;;;4.13;3.50;;;;;;;;;;5031851;28;20455;-96
2020/12/28 08:10:52;;;;;;;3.20;2.20;;;;;;;;;;5019100;28;20460;-94
2020/12/28 08:13:21;;;;;;;2.73;1.90;;;;;;;;;;5023706;28;20464;-94
2020/12/28 08:15:47;;;;;;;2.93;2.10;;;;;;;;;;5027930;28;20445;-96
2020/12/28 08:18:16;;;;;;;4.67;2.60;;;;;;;;;;5032778;28;20466;-96
2020/12/28 08:21:01;;;;;;;7.03;2.30;;;;;;;;;;5028027;28;20857;-96
2020/12/28 08:23:45;;;;;;;4.63;1.93;;;;;;;;;;5027256;28;20478;-96
2020/12/28 08:26:17;;;;;;;2.30;2.10;;;;;;;;;;5030971;28;20435;-96
2020/12/28 08:28:51;;;;;;;4.00;2.33;;;;;;;;;;5018400;28;20471;-96
2020/12/28 08:31:17;;;;;;;5.20;2.90;;;;;;;;;;5023549;28;20543;-96
2020/12/28 08:33:43;;;;;;;3.40;3.10;;;;;;;;;;5023262;28;20488;-96
2020/12/28 08:36:09;;;;;;;2.93;2.73;;;;;;;;;;5023705;28;20459;-95
2020/12/28 08:38:35;;;;;;;2.97;2.30;;;;;;;;;;5024749;28;20471;-96
2020/12/28 08:41:08;;;;;;;5.90;1.90;;;;;;;;;;5026862;28;20456;-96
2020/12/28 08:43:35;;;;;;;2.53;1.70;;;;;;;;;;5027946;28;20494;-96
2020/12/28 08:46:02;;;;;;;3.23;2.10;;;;;;;;;;5024664;28;20469;-96
2020/12/28 08:48:28;;;;;;;2.33;1.80;;;;;;;;;;5025138;28;20490;-96
2020/12/28 08:50:54;;;;;;;1.67;1.57;;;;;;;;;;5023758;28;20459;-94
2020/12/28 08:53:21;;;;;;;2.47;1.60;;;;;;;;;;5027770;28;20456;-96
2020/12/28 08:55:56;;;;;;;2.50;1.80;;;;;;;;;;5027955;28;20460;-96
2020/12/28 08:58:22;;;;;;;1.97;1.50;;;;;;;;;;5022811;28;20506;-95
2020/12/28 09:00:50;;;;;;;2.37;1.90;;;;;;;;;;5022764;28;20984;-96
2020/12/28 09:03:16;;;;;;;4.33;1.80;;;;;;;;;;5022041;28;20747;-96
2020/12/28 09:05:43;;;;;;;2.83;1.70;;;;;;;;;;5024617;28;20457;-96
2020/12/28 09:08:09;;;;;;;2.83;2.00;;;;;;;;;;5022688;28;20476;-96
2020/12/28 09:10:35;;;;;;;1.40;1.30;;;;;;;;;;5024476;28;20435;-96
2020/12/28 09:13:05;;;;;;;2.90;1.77;;;;;;;;;;5018811;28;20445;-95
2020/12/28 09:15:32;;;;;;;3.20;1.70;;;;;;;;;;5057206;23;20495;-96
2020/12/28 09:17:59;;;;;;;3.33;1.50;;;;;;;;;;5030962;28;20469;-94
2020/12/28 09:20:25;;;;;;;1.63;1.50;;;;;;;;;;5026327;28;22228;-96
2020/12/28 09:22:51;;;;;;;1.50;1.40;;;;;;;;;;5021483;28;20510;-96
2020/12/28 09:25:17;;;;;;;4.57;1.83;;;;;;;;;;5031319;28;20474;-96
2020/12/28 09:27:46;;;;;;;1.80;1.70;;;;;;;;;;5031577;28;20538;-96
2020/12/28 09:30:12;;;;;;;3.00;1.90;;;;;;;;;;5025885;28;20929;-94
2020/12/28 09:32:38;;;;;;;2.07;1.40;;;;;;;;;;5017725;28;20443;-96
2020/12/28 09:35:08;;;;;;;2.57;1.40;;;;;;;;;;5022968;28;20955;-94
2020/12/28 09:37:34;;;;;;;1.70;1.40;;;;;;;;;;5036700;28;20872;-94
2020/12/28 09:40:00;;;;;;;2.17;1.47;;;;;;;;;;5039980;28;20450;-95
2020/12/28 09:42:26;;;;;;;4.70;2.17;;;;;;;;;;5039981;28;20550;-94
2020/12/28 09:44:52;;;;;;;2.43;1.80;;;;;;;;;;5038465;28;20460;-96
2020/12/28 09:47:18;;;;;;;4.30;1.70;;;;;;;;;;5036261;28;20473;-96
2020/12/28 09:49:47;;;;;;;3.23;1.80;;;;;;;;;;5042801;28;20454;-96
2020/12/28 09:52:15;;;;;;;4.30;1.50;;;;;;;;;;5023588;28;20479;-95
2020/12/28 09:54:41;;;;;;;2.07;1.40;;;;;;;;;;5017728;28;20455;-96
2020/12/28 09:57:07;;;;;;;2.33;1.80;;;;;;;;;;5024692;28;20474;-94
2020/12/28 09:59:33;;;;;;;1.50;1.40;;;;;;;;;;5023422;28;20456;-95
2020/12/28 10:02:00;;;;;;;1.60;1.50;;;;;;;;;;5025387;28;20507;-94
2020/12/28 10:04:26;;;;;;;1.57;1.47;;;;;;;;;;5024616;28;20452;-96
2020/12/28 10:06:52;;;;;;;6.00;1.37;;;;;;;;;;5040197;28;20490;-96
2020/12/28 10:09:19;;;;;;;1.50;1.40;;;;;;;;;;5024682;28;20440;-96
2020/12/28 10:11:45;;;;;;;3.03;1.60;;;;;;;;;;5028867;28;20447;-93
2020/12/28 10:14:11;;;;;;;2.10;1.20;;;;;;;;;;5051972;28;20453;-94
2020/12/28 10:16:37;;;;;;;1.93;1.70;;;;;;;;;;5041104;28;20480;-95
2020/12/28 10:19:03;;;;;;;4.10;1.50;;;;;;;;;;5034969;28;20460;-96
2020/12/28 10:21:29;;;;;;;2.60;1.70;;;;;;;;;;5022774;28;20460;-95
2020/12/28 10:23:55;;;;;;;3.30;1.40;;;;;;;;;;5022634;28;20556;-93
2020/12/28 10:26:23;;;;;;;2.33;1.50;;;;;;;;;;5041769;28;20468;-94
2020/12/28 10:28:49;;;;;;;1.87;1.40;;;;;;;;;;5029054;28;20462;-94
2020/12/28 10:31:15;;;;;;;2.20;1.70;;;;;;;;;;5020774;28;20461;-94
2020/12/28 10:33:42;;;;;;;1.47;1.37;;;;;;;;;;5022010;28;20440;-93
2020/12/28 10:36:13;;;;;;;1.70;1.47;;;;;;;;;;5030711;28;20482;-95
2020/12/28 10:38:40;;;;;;;1.63;1.17;;;;;;;;;;5030411;28;20444;-94
2020/12/28 10:41:06;;;;;;;2.13;1.30;;;;;;;;;;5031008;28;20444;-94
2020/12/28 10:43:33;;;;;;;1.50;1.40;;;;;;;;;;5031468;28;20481;-93
2020/12/28 10:45:58;;;;;;;1.73;1.63;;;;;;;;;;5024977;28;20471;-93
2020/12/28 10:48:25;;;;;;;1.97;1.47;;;;;;;;;;5025085;28;20447;-92
2020/12/28 10:50:51;;;;;;;2.50;1.50;;;;;;;;;;5038363;28;20459;-91
2020/12/28 10:53:17;;;;;;;2.40;1.73;;;;;;;;;;5023310;28;20449;-92
2020/12/28 10:55:45;;;;;;;2.23;1.73;;;;;;;;;;5040999;28;20470;-94
2020/12/28 10:58:13;;;;;;;1.30;1.20;;;;;;;;;;5027762;28;20480;-91
2020/12/28 11:00:42;;;;;;;1.80;1.70;;;;;;;;;;5033968;28;20453;-93
2020/12/28 11:03:08;;;;;;;1.47;1.37;;;;;;;;;;5046686;28;20497;-93
2020/12/28 11:05:34;;;;;;;1.40;1.30;;;;;;;;;;5042605;28;20462;-96
2020/12/28 11:08:00;;;;;;;1.50;1.40;;;;;;;;;;5040457;28;20464;-95
2020/12/28 11:10:27;;;;;;;1.60;1.47;;;;;;;;;;5059610;28;20457;-90
2020/12/28 11:12:53;;;;;;;1.63;1.53;;;;;;;;;;5060065;28;20458;-95
2020/12/28 11:15:19;;;;;;;2.23;1.70;;;;;;;;;;5028823;28;20498;-95
2020/12/28 11:17:46;;;;;;;3.50;2.17;;;;;;;;;;5041842;28;20447;-92
2020/12/28 11:20:12;;;;;;;1.73;1.63;;;;;;;;;;5039131;28;20465;-93
2020/12/28 11:22:38;;;;;;;1.43;1.30;;;;;;;;;;5041180;28;20491;-94
2020/12/28 11:25:04;;;;;;;1.40;1.30;;;;;;;;;;5028598;28;20454;-95
2020/12/28 11:27:31;;;;;;;1.57;1.47;;;;;;;;;;5020468;28;21267;-94
2020/12/28 11:29:57;;;;;;;3.30;1.67;;;;;;;;;;5031436;28;20444;-94
2020/12/28 11:32:23;;;;;;;4.67;1.60;;;;;;;;;;5036775;28;20473;-93
2020/12/28 11:34:51;;;;;;;2.43;1.40;;;;;;;;;;5040780;28;20459;-96
2020/12/28 11:37:17;;;;;;;1.50;1.40;;;;;;;;;;5041023;28;20447;-94
2020/12/28 11:39:43;;;;;;;1.70;1.60;;;;;;;;;;5041335;28;20443;-94
2020/12/28 11:42:09;;;;;;;1.57;1.40;;;;;;;;;;5038949;28;20450;-94
2020/12/28 11:44:36;;;;;;;1.60;1.50;;;;;;;;;;5042164;28;20504;-94
2020/12/28 11:47:02;;;;;;;1.50;1.40;;;;;;;;;;5037565;28;21029;-96
2020/12/28 11:49:28;;;;;;;1.50;1.40;;;;;;;;;;5038440;28;20479;-93
2020/12/28 11:51:55;;;;;;;1.60;1.50;;;;;;;;;;5023273;28;20497;-95
2020/12/28 11:54:21;;;;;;;2.03;1.53;;;;;;;;;;5040970;28;20516;-96
2020/12/28 11:56:47;;;;;;;1.50;1.40;;;;;;;;;;5039723;28;20447;-93
2020/12/28 11:59:13;;;;;;;2.20;1.40;;;;;;;;;;5033281;28;20448;-93
2020/12/28 12:01:47;;;;;;;2.60;1.87;;;;;;;;;;5024789;28;20451;-96
2020/12/28 12:04:13;;;;;;;1.43;1.33;;;;;;;;;;5036937;28;20523;-94
2020/12/28 12:06:39;;;;;;;1.50;1.40;;;;;;;;;;5041093;28;20453;-95
2020/12/28 12:09:12;;;;;;;1.87;1.50;;;;;;;;;;5038707;28;20451;-93
2020/12/28 12:11:42;;;;;;;2.10;1.73;;;;;;;;;;5039809;28;20524;-93
2020/12/28 12:14:08;;;;;;;1.77;1.50;;;;;;;;;;5031880;28;21045;-96
2020/12/28 12:16:37;;;;;;;3.17;1.60;;;;;;;;;;5040810;28;20454;-96
2020/12/28 12:19:03;;;;;;;1.50;1.40;;;;;;;;;;5035684;28;20486;-93
2020/12/28 12:21:29;;;;;;;1.60;1.50;;;;;;;;;;5040457;28;20467;-94
2020/12/28 12:23:55;;;;;;;1.83;1.57;;;;;;;;;;5039901;28;20501;-94
2020/12/28 12:26:28;;;;;;;1.50;1.40;;;;;;;;;;5027758;28;20454;-96
2020/12/28 12:28:54;;;;;;;1.70;1.60;;;;;;;;;;5023072;28;20455;-93
2020/12/28 12:31:21;;;;;;;1.60;1.50;;;;;;;;;;5033821;28;20496;-93
2020/12/28 12:33:48;;;;;;;1.70;1.60;;;;;;;;;;5036425;28;20865;-93
2020/12/28 12:36:14;;;;;;;1.87;1.60;;;;;;;;;;5027780;28;20447;-95
2020/12/28 12:38:44;;;;;;;1.60;1.50;;;;;;;;;;5040448;28;20451;-94
2020/12/28 12:41:15;;;;;;;1.90;1.60;;;;;;;;;;5028730;28;20585;-95
2020/12/28 12:43:44;;;;;;;2.67;1.57;;;;;;;;;;5029911;28;20495;-95
2020/12/28 12:46:10;;;;;;;2.23;1.60;;;;;;;;;;5030599;28;20439;-95
2020/12/28 12:48:38;;;;;;;1.60;1.50;;;;;;;;;;5028982;28;20441;-92
2020/12/28 12:51:05;;;;;;;1.77;1.50;;;;;;;;;;5031473;28;20489;-96
2020/12/28 12:53:30;;;;;;;1.60;1.50;;;;;;;;;;5028525;28;20447;-93
2020/12/28 12:55:57;;;;;;;2.20;1.63;;;;;;;;;;5032758;28;20468;-95
2020/12/28 12:58:23;;;;;;;1.50;1.40;;;;;;;;;;5031432;28;20451;-94
2020/12/28 13:00:49;;;;;;;1.67;1.50;;;;;;;;;;5030209;28;20469;-94
2020/12/28 13:03:15;;;;;;;2.83;1.40;;;;;;;;;;5028516;28;20492;-94
2020/12/28 13:05:41;;;;;;;1.60;1.50;;;;;;;;;;5030478;28;20543;-96
2020/12/28 13:08:07;;;;;;;1.47;1.37;;;;;;;;;;5035553;28;20526;-95
2020/12/28 13:10:33;;;;;;;1.50;1.37;;;;;;;;;;5031549;28;20536;-96
2020/12/28 13:13:00;;;;;;;2.50;1.60;;;;;;;;;;5035262;28;20522;-94
2020/12/28 13:15:26;;;;;;;1.60;1.50;;;;;;;;;;5031363;28;20475;-93
2020/12/28 13:17:53;;;;;;;2.10;1.80;;;;;;;;;;5029519;28;20444;-96
2020/12/28 13:20:21;;;;;;;1.60;1.50;;;;;;;;;;5023649;28;20507;-93
2020/12/28 13:22:47;;;;;;;2.50;1.47;;;;;;;;;;5017409;28;20490;-94
2020/12/28 13:25:13;;;;;;;1.50;1.40;;;;;;;;;;5025313;28;20461;-94
2020/12/28 13:27:39;;;;;;;1.77;1.60;;;;;;;;;;5042217;28;20455;-96
2020/12/28 13:30:07;;;;;;;1.50;1.40;;;;;;;;;;5039201;28;20486;-96
2020/12/28 13:32:34;;;;;;;3.63;2.10;;;;;;;;;;5024575;28;20459;-93
2020/12/28 13:35:04;;;;;;;2.30;2.10;;;;;;;;;;5044900;28;20462;-96
2020/12/28 13:37:32;;;;;;;3.27;1.90;;;;;;;;;;5024461;28;20460;-93
2020/12/28 13:40:00;;;;;;;1.93;1.83;;;;;;;;;;5034241;28;20472;-96
2020/12/28 13:42:26;;;;;;;1.80;1.70;;;;;;;;;;5033036;28;20495;-96
2020/12/28 13:44:53;;;;;;;1.83;1.73;;;;;;;;;;5023624;28;20450;-96
2020/12/28 13:49:44;;;;;;;2.65;1.63;;;;;;;;;;5087111;23;20525;-96
2020/12/28 13:52:18;;;;;;;2.53;1.67;;;;;;;;;;5027085;28;20246;-96
2020/12/28 13:54:44;;;;;;;6.00;1.50;;;;;;;;;;5013255;28;20444;-94
2020/12/28 13:57:12;;;;;;;1.60;1.50;;;;;;;;;;5025526;28;20486;-94
2020/12/28 13:59:39;;;;;;;2.10;1.60;;;;;;;;;;5037383;28;20460;-96
2020/12/28 14:02:08;;;;;;;1.70;1.60;;;;;;;;;;5041722;28;20461;-96
2020/12/28 14:04:34;;;;;;;1.80;1.70;;;;;;;;;;5034689;28;20460;-96
2020/12/28 14:07:18;;;;;;;1.67;1.57;;;;;;;;;;5063507;23;20496;-96
2020/12/28 14:09:45;;;;;;;1.70;1.60;;;;;;;;;;5035500;28;20513;-95
2020/12/28 14:12:17;;;;;;;1.90;1.53;;;;;;;;;;5028772;28;20448;-96
2020/12/28 14:14:45;;;;;;;1.83;1.73;;;;;;;;;;5030684;28;20453;-93
2020/12/28 14:17:11;;;;;;;2.57;1.70;;;;;;;;;;5026432;28;20458;-96
2020/12/28 14:19:38;;;;;;;1.80;1.70;;;;;;;;;;5039399;28;20476;-96
2020/12/28 14:22:04;;;;;;;2.10;1.90;;;;;;;;;;5046296;28;20459;-95
2020/12/28 14:24:31;;;;;;;2.17;1.87;;;;;;;;;;5045101;28;20483;-95
2020/12/28 14:27:12;;;;;;;2.90;1.80;;;;;;;;;;5043665;28;20462;-96
2020/12/28 14:29:38;;;;;;;2.33;1.70;;;;;;;;;;5027904;28;20445;-93
2020/12/28 14:32:04;;;;;;;2.10;1.90;;;;;;;;;;5034725;28;20464;-95
2020/12/28 14:34:30;;;;;;;2.43;2.20;;;;;;;;;;5043443;28;20452;-96
2020/12/28 14:36:55;;;;;;;1.70;1.60;;;;;;;;;;5033395;28;20442;-94
2020/12/28 14:39:22;;;;;;;2.27;2.07;;;;;;;;;;5046086;28;20460;-96
2020/12/28 14:41:48;;;;;;;2.60;1.90;;;;;;;;;;5027699;28;20456;-96